Parkano, Suomi

24. elokuuta 2017 klo 13:32 (EEST) (GMT +0300)
Pirkkala | | Change Station

Kork 367 ft 61.42 °N, 23.58 °E | Updated 12 minutes ago

Pilvistä
Pilvistä
57 °F
Tuntuu kuin 57 °F
N
8
Tuuli Suunnaltaan vaihteleva Tuuli ilmansuunnasta Pohjoisen ja luoteen välinen

Tänään
Korkea -- | Matala -- °F
--% Sateen mahd.
Eilen
Korkea -- | Matala -- °F
Precip. -- tuumaa
Ilmanpaine 29.77 tuumaa
Näkyvyys 6.2 mailia
Pilviä Pilvistä 2600 ft
Kastepiste 46 °F
Ilmankosteus 67%
Sademäärä 0.00 tuumaa
Lumensyvyys Ei saatavilla
5:56 AM 9:02 PM
Kasvava sirppi, 9% visible
METAR EFTP 241020Z 34007KT 9999 BKN026 14/08 Q1008
Ilmanpaine 29.77 tuumaa
Näkyvyys 6.2 mailia
Pilviä Pilvistä 2600 ft
Kastepiste 46 °F
Ilmankosteus 67%
Sademäärä 0.00 tuumaa
Lumensyvyys Ei saatavilla
5:56 AM 9:02 PM
Kasvava sirppi, 9% visible
METAR EFTP 241020Z 34007KT 9999 BKN026 14/08 Q1008

Get Severe Weather Alerts

Thanks for signing up!

Be on the lookout for a verification email in your inbox.

You'll start receiving the daily forecast at 6 AM.

×

10-Day Weather Forecast

×

Almanac

Tähtitiede

Aug. 24, 2017 Nousuaika Laskuaika
Valoisa aika
Porvarillinen hämärä
Nauttinen hämärä
Astronominen hämärä
Kuu
Näkyvän valon pituus
Päivän pituus
Tomorrow will be .
, % of the Moon is Illuminated

Tämän päivän ennätykset

Country Highs Country Lows

Community

WunderPhotos

Category 6

Welcome to Category 6. This is the collective home for Weather Underground's featured writeups by Dr. Jeff Masters (right), Bob Henson (left), Chris Burt, and other regular contributors.

Nearby

Ilmanlaatu

  Ilmanlaatu AQ Index Pollutant
Not available.

Lumensyvyys

Station Depth Korkeus

Maanjäristysaktiivisuus

Paikkakunta Distance Mag. Time & Date
Minimum magnitude displayed is 2.5.

Coastal Water Temperatures

Paikka Lämpötila

Stations

Lähimmät sääasemat

Aseman sijainti Lämpötila Tuulen hyytävyys Kastepiste Ilmankosteus Tuuli Precip. Kork Päivitetty Tyyppi